createdAt,value
2023-03-10T00:00:00.358Z,7.7
2023-03-10T00:05:00.380Z,8.6
2023-03-10T00:10:00.365Z,8.7
2023-03-10T00:15:00.361Z,8.8
2023-03-10T00:20:00.358Z,8.6
2023-03-10T00:25:00.356Z,8.9
2023-03-10T00:30:00.348Z,9.6
2023-03-10T00:35:00.366Z,7.6
2023-03-10T00:40:00.351Z,9.0
2023-03-10T00:45:00.362Z,9.4
2023-03-10T00:50:00.368Z,8.5
2023-03-10T00:55:00.370Z,9.8
2023-03-10T01:00:00.367Z,9.4
2023-03-10T01:05:00.384Z,7.3
2023-03-10T01:10:00.344Z,8.3
2023-03-10T01:15:00.353Z,9.3
2023-03-10T01:20:00.360Z,10.0
2023-03-10T01:25:00.392Z,9.6
2023-03-10T01:30:00.382Z,9.0
2023-03-10T01:35:00.361Z,7.5
2023-03-10T01:40:00.362Z,7.9
2023-03-10T01:45:00.354Z,7.3
2023-03-10T01:50:00.376Z,8.1
2023-03-10T01:55:00.358Z,8.5
2023-03-10T02:00:00.354Z,9.1
2023-03-10T02:05:00.349Z,8.8
2023-03-10T02:10:00.358Z,7.5
2023-03-10T02:15:00.358Z,9.5
2023-03-10T02:20:00.344Z,9.4
2023-03-10T02:25:00.361Z,7.7
2023-03-10T02:30:00.428Z,7.8
2023-03-10T02:35:00.365Z,6.7
2023-03-10T02:40:00.364Z,7.1
2023-03-10T02:45:00.368Z,7.5
2023-03-10T02:50:00.360Z,8.0
2023-03-10T02:55:00.354Z,7.7
2023-03-10T03:00:00.360Z,8.3
2023-03-10T03:05:00.376Z,8.5
2023-03-10T03:10:00.386Z,8.9
2023-03-10T03:15:00.339Z,8.9
2023-03-10T03:20:00.353Z,10.1
2023-03-10T03:25:00.379Z,9.6
2023-03-10T03:30:00.354Z,11.1
2023-03-10T03:35:00.364Z,9.2
2023-03-10T03:40:00.486Z,11.5
2023-03-10T03:45:00.359Z,9.4
2023-03-10T03:50:00.355Z,12.5
2023-03-10T03:55:00.349Z,12.1
2023-03-10T04:00:00.356Z,14.5
2023-03-10T04:05:00.371Z,11.3
2023-03-10T04:10:00.354Z,12.0
2023-03-10T04:15:00.386Z,11.8
2023-03-10T04:20:07.171Z,12.4
2023-03-10T04:25:00.371Z,11.6
2023-03-10T04:30:00.379Z,10.2
2023-03-10T04:35:00.352Z,11.4
2023-03-10T04:40:00.358Z,12.6
2023-03-10T04:45:00.367Z,9.9
2023-03-10T04:50:00.416Z,12.1
2023-03-10T04:55:00.363Z,12.6
2023-03-10T05:00:02.906Z,11.3
2023-03-10T05:05:00.348Z,10.8
2023-03-10T05:10:00.352Z,9.9
2023-03-10T05:15:00.346Z,8.9
2023-03-10T05:20:00.370Z,10.1
2023-03-10T05:25:00.354Z,8.0
2023-03-10T05:30:00.346Z,7.1
2023-03-10T05:35:00.343Z,8.7
2023-03-10T05:40:00.362Z,5.7
2023-03-10T05:45:00.358Z,5.3
2023-03-10T05:50:00.354Z,6.5
2023-03-10T05:55:00.361Z,6.0
2023-03-10T06:00:00.365Z,5.5
2023-03-10T06:05:00.349Z,5.5
2023-03-10T06:10:00.367Z,5.2
2023-03-10T06:15:00.355Z,5.7
2023-03-10T06:20:00.370Z,5.2
2023-03-10T06:25:00.369Z,5.3
2023-03-10T06:30:00.359Z,5.5
2023-03-10T06:35:00.356Z,7.1
2023-03-10T06:40:00.362Z,5.1
2023-03-10T06:45:00.364Z,4.9
2023-03-10T06:50:00.361Z,8.2
2023-03-10T06:55:00.358Z,5.3
2023-03-10T07:00:00.399Z,5.9
2023-03-10T07:05:00.433Z,5.3
2023-03-10T07:10:00.353Z,7.0
2023-03-10T07:15:00.392Z,6.2
2023-03-10T07:20:00.371Z,6.6
2023-03-10T07:25:00.340Z,7.3
2023-03-10T07:30:00.365Z,5.5
2023-03-10T07:35:00.367Z,5.7
2023-03-10T07:40:00.400Z,6.8
2023-03-10T07:45:00.355Z,6.8
2023-03-10T07:50:00.369Z,6.6
2023-03-10T07:55:00.361Z,6.8
2023-03-10T08:00:00.385Z,7.3
2023-03-10T08:05:00.554Z,6.8
2023-03-10T08:10:00.354Z,7.8
2023-03-10T08:15:00.392Z,5.8
2023-03-10T08:20:00.354Z,9.0
2023-03-10T08:25:00.365Z,7.2
2023-03-10T08:30:00.356Z,7.7
2023-03-10T08:35:00.368Z,11.9
2023-03-10T08:40:00.349Z,8.3
2023-03-10T08:45:00.347Z,6.6
2023-03-10T08:50:00.368Z,9.1
2023-03-10T08:55:00.365Z,7.7
2023-03-10T09:00:00.386Z,8.4
2023-03-10T09:05:00.369Z,10.1
2023-03-10T09:10:00.364Z,8.9
2023-03-10T09:15:00.360Z,9.6
2023-03-10T09:20:00.360Z,8.7
2023-03-10T09:25:00.924Z,10.6
2023-03-10T09:30:01.449Z,7.5
2023-03-10T09:35:00.351Z,9.2
2023-03-10T09:40:00.402Z,10.3
2023-03-10T09:45:00.350Z,9.2
2023-03-10T09:50:00.366Z,9.3
2023-03-10T09:55:00.352Z,9.1
2023-03-10T10:00:00.365Z,7.2
2023-03-10T10:05:02.614Z,8.4
2023-03-10T10:10:00.353Z,8.9
2023-03-10T10:15:00.361Z,7.3
2023-03-10T10:20:00.353Z,8.2
2023-03-10T10:25:00.360Z,6.0
2023-03-10T10:30:00.351Z,7.3
2023-03-10T10:35:00.354Z,7.3
2023-03-10T10:40:00.382Z,5.4
2023-03-10T10:45:00.364Z,7.1
2023-03-10T10:50:00.352Z,6.5
2023-03-10T10:55:00.421Z,6.0
2023-03-10T11:00:00.373Z,6.1
2023-03-10T11:05:00.351Z,7.6
2023-03-10T11:10:00.363Z,8.1
2023-03-10T11:15:00.369Z,6.9
2023-03-10T11:20:00.357Z,7.4
2023-03-10T11:25:00.403Z,8.4
2023-03-10T11:30:00.356Z,6.9
2023-03-10T11:35:00.375Z,8.4
2023-03-10T11:40:00.376Z,7.9
2023-03-10T11:45:00.374Z,8.3
2023-03-10T11:50:00.376Z,7.7
2023-03-10T11:55:00.351Z,6.1
2023-03-10T12:00:00.402Z,6.6
2023-03-10T12:05:00.386Z,6.3
2023-03-10T12:10:00.375Z,7.2
2023-03-10T12:15:00.371Z,6.4
2023-03-10T12:20:00.371Z,6.8
2023-03-10T12:25:00.382Z,5.9
2023-03-10T12:30:00.379Z,6.5
2023-03-10T12:35:00.358Z,6.2
2023-03-10T12:40:00.418Z,8.7
2023-03-10T12:45:00.367Z,6.9
2023-03-10T12:50:00.380Z,7.5
2023-03-10T12:55:00.354Z,6.5
2023-03-10T13:00:00.360Z,6.4
2023-03-10T13:05:00.365Z,5.9
2023-03-10T13:10:00.372Z,5.5
2023-03-10T13:15:00.384Z,6.5
2023-03-10T13:20:00.368Z,7.2
2023-03-10T13:25:00.380Z,7.8
2023-03-10T13:30:00.367Z,7.5
2023-03-10T13:35:00.381Z,5.9
2023-03-10T13:40:00.389Z,8.6
2023-03-10T13:45:00.374Z,6.2
2023-03-10T13:50:00.386Z,6.9
2023-03-10T13:55:00.378Z,6.8
2023-03-10T14:00:00.365Z,7.8
2023-03-10T14:05:00.373Z,6.8
2023-03-10T14:10:00.385Z,7.2
2023-03-10T14:15:00.391Z,8.2
2023-03-10T14:20:00.353Z,8.5
2023-03-10T14:25:00.372Z,8.9
2023-03-10T14:30:00.372Z,8.7
2023-03-10T14:35:00.414Z,8.2
2023-03-10T14:40:00.348Z,9.2
2023-03-10T14:45:00.430Z,9.8
2023-03-10T14:50:00.367Z,8.2
2023-03-10T14:55:00.364Z,10.6
2023-03-10T15:00:00.369Z,11.3
2023-03-10T15:05:00.417Z,10.1
2023-03-10T15:10:11.271Z,9.4
2023-03-10T15:15:00.377Z,9.7
2023-03-10T15:20:00.355Z,9.2
2023-03-10T15:25:00.352Z,9.5
2023-03-10T15:30:00.373Z,11.3
2023-03-10T15:35:00.361Z,13.4
2023-03-10T15:40:00.363Z,11.8
2023-03-10T15:45:00.349Z,9.8
2023-03-10T15:50:00.366Z,7.7
2023-03-10T15:55:00.366Z,7.2
2023-03-10T16:00:00.382Z,6.0
2023-03-10T16:05:00.376Z,6.0
2023-03-10T16:10:00.387Z,4.8
2023-03-10T16:15:00.379Z,4.8
2023-03-10T16:20:00.390Z,5.5
2023-03-10T16:25:00.355Z,5.2
2023-03-10T16:30:00.409Z,5.5
2023-03-10T16:35:00.374Z,4.9
2023-03-10T16:40:00.349Z,5.9
2023-03-10T16:45:00.356Z,14.2
2023-03-10T16:50:00.364Z,5.5
2023-03-10T16:55:00.349Z,5.8
2023-03-10T17:00:00.404Z,7.5
2023-03-10T17:05:00.355Z,9.2
2023-03-10T17:10:00.351Z,7.8
2023-03-10T17:15:00.379Z,10.8
2023-03-10T17:20:00.346Z,8.4
2023-03-10T17:25:00.359Z,9.4
2023-03-10T17:30:00.342Z,5.2
2023-03-10T17:35:00.398Z,8.6
2023-03-10T17:40:00.439Z,5.8
2023-03-10T17:45:00.402Z,4.9
2023-03-10T17:50:00.454Z,3.3
2023-03-10T17:55:00.352Z,6.2
2023-03-10T18:00:00.349Z,2.2
2023-03-10T18:05:00.365Z,6.1
2023-03-10T18:10:00.354Z,3.0
2023-03-10T18:15:00.368Z,4.2
2023-03-10T18:20:00.377Z,2.9
2023-03-10T18:25:00.353Z,6.7
2023-03-10T18:30:00.403Z,5.2
2023-03-10T18:35:00.347Z,5.9
2023-03-10T18:40:00.368Z,3.5
2023-03-10T18:45:00.363Z,6.4
2023-03-10T18:50:00.360Z,7.4
2023-03-10T18:55:00.384Z,3.7
2023-03-10T19:00:01.092Z,4.1
2023-03-10T19:05:00.360Z,4.8
2023-03-10T19:10:00.367Z,3.5
2023-03-10T19:15:00.349Z,5.7
2023-03-10T19:20:00.346Z,3.6
2023-03-10T19:25:00.356Z,3.7
2023-03-10T19:30:00.466Z,3.9
2023-03-10T19:35:00.346Z,3.0
2023-03-10T19:40:00.344Z,3.4
2023-03-10T19:45:00.358Z,4.4
2023-03-10T19:50:00.349Z,4.5
2023-03-10T19:55:00.351Z,5.0
2023-03-10T20:00:00.369Z,6.7
2023-03-10T20:05:00.362Z,10.1
2023-03-10T20:10:00.361Z,4.9
2023-03-10T20:15:00.388Z,3.8
2023-03-10T20:20:00.364Z,3.8
2023-03-10T20:25:00.369Z,3.4
2023-03-10T20:30:00.372Z,7.3
2023-03-10T20:35:00.363Z,3.7
2023-03-10T20:40:00.395Z,3.4
2023-03-10T20:45:00.400Z,4.6
2023-03-10T20:50:00.379Z,3.8
2023-03-10T20:55:00.353Z,7.2
2023-03-10T21:00:00.359Z,4.5
2023-03-10T21:05:00.347Z,7.0
2023-03-10T21:10:00.352Z,4.2
2023-03-10T21:15:00.361Z,3.3
2023-03-10T21:20:00.343Z,8.9
2023-03-10T21:25:00.348Z,5.2
2023-03-10T21:30:00.377Z,6.1
2023-03-10T21:35:00.357Z,4.2
2023-03-10T21:40:00.368Z,4.4
2023-03-10T21:45:00.358Z,4.2
2023-03-10T21:50:00.363Z,4.8
2023-03-10T21:55:00.364Z,2.8
2023-03-10T22:00:00.355Z,4.0
2023-03-10T22:05:00.357Z,4.2
2023-03-10T22:10:00.359Z,4.9
2023-03-10T22:15:00.365Z,7.9
2023-03-10T22:20:00.347Z,5.6
2023-03-10T22:25:00.364Z,4.5
2023-03-10T22:30:00.362Z,4.9
2023-03-10T22:35:00.362Z,2.7
2023-03-10T22:40:00.363Z,4.0
2023-03-10T22:50:00.312Z,5.2
2023-03-10T22:55:00.306Z,5.3
2023-03-10T23:00:00.308Z,4.6
2023-03-10T23:05:00.332Z,4.6
2023-03-10T23:10:00.315Z,3.7
2023-03-10T23:15:00.307Z,2.9
2023-03-10T23:20:00.306Z,4.6
2023-03-10T23:25:00.311Z,3.3
2023-03-10T23:30:00.306Z,5.0
2023-03-10T23:35:00.314Z,3.8
2023-03-10T23:40:00.295Z,6.2
2023-03-10T23:45:00.308Z,4.1
2023-03-10T23:50:00.323Z,4.5
2023-03-10T23:55:00.300Z,3.6
